Time;durP1;ratioP1;P1;durP2;ratioP2;P2;SDS_P1;SDS_P2;PMS_P1;PMS_P2;Temp;Humidity;BMP_temperature;BMP_pressure;BME280_temperature;BME280_humidity;BME280_pressure;Samples;Min_cycle;Max_cycle;Signal;HPM_P1;HPM_P2
2024/01/27 00:01:34;;;;;;;;;;;2.40;99.90;;;;;;5074032;28;20369;-67
2024/01/27 00:04:00;;;;;;;;;;;2.40;99.90;;;;;;5080803;28;19959;-67
2024/01/27 00:06:26;;;;;;;;;;;2.40;99.90;;;;;;5078881;28;19917;-67
2024/01/27 00:08:51;;;;;;;;;;;2.40;99.90;;;;;;5080979;28;19927;-67
2024/01/27 00:11:17;;;;;;;;;;;2.50;99.90;;;;;;5096144;28;19923;-67
2024/01/27 00:13:43;;;;;;;;;;;2.50;99.90;;;;;;5077975;28;19930;-67
2024/01/27 00:16:09;;;;;;;;;;;2.40;99.90;;;;;;5083081;28;19962;-67
2024/01/27 00:18:37;;;;;;;;;;;2.40;99.90;;;;;;5074450;28;19916;-67
2024/01/27 00:21:04;;;;;;;;;;;2.40;99.90;;;;;;5086716;28;20011;-67
2024/01/27 00:23:29;;;;;;;;;;;2.50;99.90;;;;;;5086792;28;19999;-67
2024/01/27 00:25:55;;;;;;;;;;;2.50;99.90;;;;;;5079602;28;19992;-67
2024/01/27 00:28:21;;;;;;;;;;;2.40;99.90;;;;;;5083935;28;19920;-67
2024/01/27 00:30:46;;;;;;;;;;;2.40;99.90;;;;;;5081867;28;19917;-67
2024/01/27 00:33:12;;;;;;;;;;;2.40;99.90;;;;;;5063599;28;19942;-67
2024/01/27 00:35:37;;;;;;;;;;;2.40;99.90;;;;;;5079282;28;19968;-67
2024/01/27 00:38:03;;;;;;;;;;;2.40;99.90;;;;;;5086867;28;20440;-67
2024/01/27 00:40:29;;;;;;;;;;;2.40;99.90;;;;;;5082554;28;19924;-66
2024/01/27 00:42:54;;;;;;;;;;;2.40;99.90;;;;;;5080208;28;19923;-67
2024/01/27 00:45:22;;;;;;;;;;;2.40;99.90;;;;;;5065980;28;19923;-67
2024/01/27 00:47:49;;;;;;;;;;;2.40;99.90;;;;;;5083778;28;20347;-67
2024/01/27 00:50:15;;;;;;;;;;;2.40;99.90;;;;;;5077122;28;19931;-67
2024/01/27 00:52:40;;;;;;;;;;;2.50;99.90;;;;;;5081142;28;20289;-67
2024/01/27 00:55:06;;;;;;;;;;;2.40;99.90;;;;;;5081292;28;20301;-67
2024/01/27 00:57:32;;;;;;;;;;;2.40;99.90;;;;;;5077194;28;19916;-67
2024/01/27 00:59:57;;;;;;;;;;;2.40;99.90;;;;;;5073316;28;20323;-67
2024/01/27 01:02:23;;;;;;;;;;;2.40;99.90;;;;;;5075918;28;19923;-67
2024/01/27 01:04:49;;;;;;;;;;;2.50;99.90;;;;;;5082009;28;19916;-67
2024/01/27 01:07:15;;;;;;;;;;;2.50;99.90;;;;;;5079895;28;20023;-66
2024/01/27 01:09:40;;;;;;;;;;;2.50;99.90;;;;;;5083584;28;19986;-67
2024/01/27 01:12:06;;;;;;;;;;;2.40;99.90;;;;;;5079974;28;20006;-67
2024/01/27 01:14:31;;;;;;;;;;;2.40;99.90;;;;;;5080093;28;20442;-67
2024/01/27 01:16:58;;;;;;;;;;;2.40;99.90;;;;;;5079628;28;19926;-67
2024/01/27 01:19:23;;;;;;;;;;;2.40;99.90;;;;;;5084295;28;19916;-67
2024/01/27 01:21:49;;;;;;;;;;;2.30;99.90;;;;;;5082651;28;19916;-66
2024/01/27 01:24:14;;;;;;;;;;;2.30;99.90;;;;;;5078555;28;19934;-67
2024/01/27 01:26:40;;;;;;;;;;;2.30;99.90;;;;;;5073275;28;19920;-66
2024/01/27 01:29:05;;;;;;;;;;;2.20;99.90;;;;;;5077706;28;19966;-67
2024/01/27 01:31:31;;;;;;;;;;;2.20;99.90;;;;;;5083451;28;19920;-66
2024/01/27 01:33:57;;;;;;;;;;;2.20;99.90;;;;;;5075685;28;19920;-66
2024/01/27 01:36:22;;;;;;;;;;;2.20;99.90;;;;;;5076599;28;19924;-66
2024/01/27 01:38:50;;;;;;;;;;;2.20;99.90;;;;;;5062723;28;19915;-66
2024/01/27 01:41:16;;;;;;;;;;;2.20;99.90;;;;;;5085859;28;20364;-66
2024/01/27 01:43:42;;;;;;;;;;;2.20;99.90;;;;;;5074197;28;19946;-66
2024/01/27 01:46:07;;;;;;;;;;;2.20;99.90;;;;;;5083369;28;19919;-66
2024/01/27 01:48:33;;;;;;;;;;;2.20;99.90;;;;;;5076596;28;19962;-67
2024/01/27 01:51:00;;;;;;;;;;;2.10;99.90;;;;;;5081952;28;19931;-66
2024/01/27 01:53:25;;;;;;;;;;;2.20;99.90;;;;;;5074984;28;19920;-66
2024/01/27 01:55:52;;;;;;;;;;;2.10;99.90;;;;;;5086504;28;19920;-66
2024/01/27 01:58:18;;;;;;;;;;;2.10;99.90;;;;;;5082554;28;20365;-66
2024/01/27 02:00:44;;;;;;;;;;;2.10;99.90;;;;;;5084470;28;19920;-66
2024/01/27 02:03:10;;;;;;;;;;;2.00;99.90;;;;;;5079178;28;19931;-67
2024/01/27 02:05:36;;;;;;;;;;;2.00;99.90;;;;;;5081724;28;19931;-67
2024/01/27 02:08:04;;;;;;;;;;;2.00;99.90;;;;;;5077090;28;19924;-67
2024/01/27 02:10:36;;;;;;;;;;;2.00;99.90;;;;;;5084218;28;19947;-67
2024/01/27 02:13:16;;;;;;;;;;;2.00;99.90;;;;;;5078604;28;19968;-66
2024/01/27 02:15:42;;;;;;;;;;;2.00;99.90;;;;;;5083100;28;19917;-66
2024/01/27 02:18:07;;;;;;;;;;;2.00;99.90;;;;;;5061657;28;20282;-66
2024/01/27 02:20:33;;;;;;;;;;;2.00;99.90;;;;;;5078818;28;19920;-67
2024/01/27 02:22:59;;;;;;;;;;;2.00;99.90;;;;;;5056736;28;19916;-67
2024/01/27 02:25:25;;;;;;;;;;;1.90;99.90;;;;;;5079457;28;19931;-67
2024/01/27 02:27:50;;;;;;;;;;;1.90;99.90;;;;;;5081740;28;19916;-66
2024/01/27 02:30:16;;;;;;;;;;;1.80;99.90;;;;;;5078540;28;19933;-67
2024/01/27 02:32:41;;;;;;;;;;;1.80;99.90;;;;;;5082602;28;20321;-67
2024/01/27 02:35:08;;;;;;;;;;;1.80;99.90;;;;;;5075285;28;19924;-67
2024/01/27 02:37:33;;;;;;;;;;;1.80;99.90;;;;;;5087018;28;19923;-66
2024/01/27 02:39:59;;;;;;;;;;;1.80;99.90;;;;;;5075802;28;20019;-67
2024/01/27 02:42:24;;;;;;;;;;;1.80;99.90;;;;;;5080636;28;19969;-67
2024/01/27 02:44:50;;;;;;;;;;;1.80;99.90;;;;;;5080597;28;20288;-66
2024/01/27 02:47:15;;;;;;;;;;;1.80;99.90;;;;;;5079700;28;19920;-67
2024/01/27 02:49:41;;;;;;;;;;;1.80;99.90;;;;;;5073759;28;20384;-66
2024/01/27 02:52:06;;;;;;;;;;;1.80;99.90;;;;;;5079333;28;19924;-66
2024/01/27 02:54:32;;;;;;;;;;;1.90;99.90;;;;;;5084183;28;19916;-67
2024/01/27 02:56:58;;;;;;;;;;;1.90;99.90;;;;;;5076117;28;20369;-67
2024/01/27 02:59:23;;;;;;;;;;;1.90;99.90;;;;;;5081315;28;19949;-66
2024/01/27 03:01:49;;;;;;;;;;;1.90;99.90;;;;;;5095498;28;19922;-66
2024/01/27 03:04:14;;;;;;;;;;;1.90;99.90;;;;;;5083412;28;20250;-67
2024/01/27 03:06:40;;;;;;;;;;;1.80;99.90;;;;;;5078591;28;19973;-67
2024/01/27 03:09:06;;;;;;;;;;;1.80;99.90;;;;;;5075956;28;20007;-67
2024/01/27 03:11:31;;;;;;;;;;;1.80;99.90;;;;;;5084041;28;20053;-67
2024/01/27 03:13:57;;;;;;;;;;;1.80;99.90;;;;;;5081284;28;19920;-67
2024/01/27 03:16:22;;;;;;;;;;;1.80;99.90;;;;;;5076167;28;19923;-67
2024/01/27 03:18:48;;;;;;;;;;;1.70;99.90;;;;;;5067569;28;19999;-66
2024/01/27 03:21:14;;;;;;;;;;;1.70;99.90;;;;;;5079737;28;20381;-66
2024/01/27 03:23:39;;;;;;;;;;;1.70;99.90;;;;;;5075804;28;19959;-66
2024/01/27 03:26:05;;;;;;;;;;;1.70;99.90;;;;;;5084678;28;19923;-67
2024/01/27 03:28:30;;;;;;;;;;;1.70;99.90;;;;;;5078990;28;19920;-67
2024/01/27 03:30:56;;;;;;;;;;;1.70;99.90;;;;;;5074064;28;19924;-67
2024/01/27 03:33:22;;;;;;;;;;;1.70;99.90;;;;;;5077088;28;19967;-66
2024/01/27 03:35:48;;;;;;;;;;;1.60;99.90;;;;;;5079142;28;19923;-66
2024/01/27 03:38:13;;;;;;;;;;;1.60;99.90;;;;;;5082047;28;19916;-67
2024/01/27 03:40:39;;;;;;;;;;;1.60;99.90;;;;;;5084030;28;20371;-67
2024/01/27 03:43:05;;;;;;;;;;;1.60;99.90;;;;;;5093169;28;19923;-67
2024/01/27 03:45:30;;;;;;;;;;;1.60;99.90;;;;;;5062309;28;19923;-66
2024/01/27 03:47:57;;;;;;;;;;;1.60;99.90;;;;;;5075471;28;20350;-66
2024/01/27 03:50:22;;;;;;;;;;;1.60;99.90;;;;;;5080782;28;19916;-67
2024/01/27 03:52:48;;;;;;;;;;;1.60;99.90;;;;;;5073414;28;19920;-67
2024/01/27 03:55:14;;;;;;;;;;;1.50;99.90;;;;;;5072380;28;20293;-66
2024/01/27 03:57:39;;;;;;;;;;;1.50;99.90;;;;;;5072595;28;20050;-67
2024/01/27 04:00:05;;;;;;;;;;;1.50;99.90;;;;;;5081502;28;19920;-66
2024/01/27 04:02:31;;;;;;;;;;;1.50;99.90;;;;;;5067542;28;20011;-67
2024/01/27 04:04:56;;;;;;;;;;;1.50;99.90;;;;;;5073765;28;19916;-67
2024/01/27 04:07:22;;;;;;;;;;;1.50;99.90;;;;;;5082676;28;19968;-67
2024/01/27 04:09:47;;;;;;;;;;;1.50;99.90;;;;;;5085214;28;20373;-66
2024/01/27 04:12:13;;;;;;;;;;;1.50;99.90;;;;;;5078069;28;19927;-66
2024/01/27 04:14:38;;;;;;;;;;;1.50;99.90;;;;;;5074091;28;19923;-67
2024/01/27 04:17:04;;;;;;;;;;;1.50;99.90;;;;;;5080230;28;20296;-66
2024/01/27 04:19:30;;;;;;;;;;;1.50;99.90;;;;;;5082421;28;19922;-67
2024/01/27 04:21:55;;;;;;;;;;;1.40;99.90;;;;;;5083772;28;19917;-67
2024/01/27 04:24:21;;;;;;;;;;;1.40;99.90;;;;;;5082018;28;19931;-67
2024/01/27 04:26:46;;;;;;;;;;;1.50;99.90;;;;;;5083484;28;20381;-67
2024/01/27 04:29:14;;;;;;;;;;;1.40;99.90;;;;;;5082922;28;20011;-67
2024/01/27 04:31:41;;;;;;;;;;;1.40;99.90;;;;;;5085018;28;19923;-67
2024/01/27 04:34:07;;;;;;;;;;;1.40;99.90;;;;;;5081408;28;19967;-67
2024/01/27 04:36:33;;;;;;;;;;;1.40;99.90;;;;;;5080969;28;20348;-67
2024/01/27 04:38:58;;;;;;;;;;;1.40;99.90;;;;;;5106540;28;19951;-67
2024/01/27 04:41:24;;;;;;;;;;;1.40;99.90;;;;;;5084194;28;19920;-66
2024/01/27 04:43:50;;;;;;;;;;;1.40;99.90;;;;;;5055720;28;20274;-66
2024/01/27 04:46:15;;;;;;;;;;;1.40;99.90;;;;;;5086129;28;19942;-67
2024/01/27 04:48:41;;;;;;;;;;;1.40;99.90;;;;;;5082263;28;19923;-66
2024/01/27 04:51:06;;;;;;;;;;;1.40;99.90;;;;;;5081141;28;19924;-67
2024/01/27 04:53:32;;;;;;;;;;;1.40;99.90;;;;;;5077949;28;19928;-67
2024/01/27 04:55:58;;;;;;;;;;;1.40;99.90;;;;;;5063045;28;20072;-67
2024/01/27 04:58:23;;;;;;;;;;;1.40;99.90;;;;;;5078747;28;19970;-67
2024/01/27 05:00:49;;;;;;;;;;;1.40;99.90;;;;;;5086255;28;19917;-67
2024/01/27 05:03:15;;;;;;;;;;;1.40;99.90;;;;;;5058023;28;19923;-67
2024/01/27 05:05:41;;;;;;;;;;;1.30;99.90;;;;;;5083267;28;19919;-67
2024/01/27 05:08:06;;;;;;;;;;;1.30;99.90;;;;;;5073948;28;20297;-67
2024/01/27 05:10:32;;;;;;;;;;;1.40;99.90;;;;;;5062268;28;20289;-67
2024/01/27 05:12:58;;;;;;;;;;;1.40;99.90;;;;;;5080940;28;19927;-67
2024/01/27 05:15:23;;;;;;;;;;;1.30;99.90;;;;;;5080008;28;19923;-67
2024/01/27 05:17:49;;;;;;;;;;;1.30;99.90;;;;;;5079911;28;19939;-67
2024/01/27 05:20:14;;;;;;;;;;;1.30;99.90;;;;;;5076959;28;19962;-67
2024/01/27 05:22:40;;;;;;;;;;;1.30;99.90;;;;;;5078550;28;19924;-67
2024/01/27 05:25:06;;;;;;;;;;;1.40;99.90;;;;;;5082200;28;19947;-66
2024/01/27 05:27:31;;;;;;;;;;;1.30;99.90;;;;;;5084282;28;19916;-67
2024/01/27 05:29:57;;;;;;;;;;;1.30;99.90;;;;;;5079687;28;20354;-67
2024/01/27 05:32:22;;;;;;;;;;;1.30;99.90;;;;;;5079791;28;19928;-66
2024/01/27 05:34:48;;;;;;;;;;;1.40;99.90;;;;;;5083305;28;19917;-67
2024/01/27 05:37:14;;;;;;;;;;;1.40;99.90;;;;;;5061549;28;19928;-66
2024/01/27 05:39:39;;;;;;;;;;;1.40;99.90;;;;;;5072182;28;20297;-67
2024/01/27 05:42:05;;;;;;;;;;;1.30;99.90;;;;;;5076459;28;19923;-67
2024/01/27 05:44:31;;;;;;;;;;;1.30;99.90;;;;;;5079378;28;19969;-68
2024/01/27 05:46:56;;;;;;;;;;;1.30;99.90;;;;;;5076675;28;20007;-66
2024/01/27 05:49:22;;;;;;;;;;;1.40;99.90;;;;;;5056422;28;19916;-66
2024/01/27 05:51:50;;;;;;;;;;;1.40;99.90;;;;;;5078065;28;20030;-67
2024/01/27 05:54:16;;;;;;;;;;;1.40;99.90;;;;;;5075173;28;19923;-67
2024/01/27 05:56:42;;;;;;;;;;;1.40;99.90;;;;;;5083450;28;19916;-67
2024/01/27 05:59:07;;;;;;;;;;;1.40;99.90;;;;;;5075496;28;19920;-67
2024/01/27 06:01:33;;;;;;;;;;;1.40;99.90;;;;;;5079208;28;19923;-67
2024/01/27 06:03:59;;;;;;;;;;;1.30;99.90;;;;;;5075931;28;19991;-67
2024/01/27 06:06:24;;;;;;;;;;;1.30;99.90;;;;;;5082346;28;19954;-67
2024/01/27 06:08:50;;;;;;;;;;;1.30;99.90;;;;;;5073954;28;20332;-67
2024/01/27 06:11:22;;;;;;;;;;;1.30;99.90;;;;;;5073878;28;20002;-67
2024/01/27 06:13:48;;;;;;;;;;;1.30;99.90;;;;;;5076452;28;19960;-67
2024/01/27 06:16:14;;;;;;;;;;;1.30;99.90;;;;;;5068550;28;19920;-67
2024/01/27 06:18:40;;;;;;;;;;;1.20;99.90;;;;;;5078670;28;19923;-67
2024/01/27 06:21:05;;;;;;;;;;;1.30;99.90;;;;;;5081742;28;19916;-67
2024/01/27 06:23:31;;;;;;;;;;;1.20;99.90;;;;;;5061122;28;20179;-67
2024/01/27 06:25:56;;;;;;;;;;;1.20;99.90;;;;;;5077703;28;19947;-67
2024/01/27 06:28:22;;;;;;;;;;;1.20;99.90;;;;;;5080488;28;19973;-67
2024/01/27 06:30:48;;;;;;;;;;;1.20;99.90;;;;;;5072884;28;20328;-67
2024/01/27 06:33:13;;;;;;;;;;;1.20;99.90;;;;;;5076466;28;19928;-67
2024/01/27 06:35:39;;;;;;;;;;;1.20;99.90;;;;;;5081132;28;19959;-67
2024/01/27 06:38:04;;;;;;;;;;;1.20;99.90;;;;;;5080904;28;19927;-67
2024/01/27 06:40:30;;;;;;;;;;;1.20;99.90;;;;;;5076219;28;20272;-68
2024/01/27 06:42:56;;;;;;;;;;;1.20;99.90;;;;;;5079704;28;19916;-67
2024/01/27 06:45:21;;;;;;;;;;;1.20;99.90;;;;;;5079958;28;20377;-67
2024/01/27 06:47:47;;;;;;;;;;;1.20;99.90;;;;;;5082511;28;19963;-67
2024/01/27 06:50:13;;;;;;;;;;;1.20;99.90;;;;;;5072329;28;19916;-67
2024/01/27 06:52:39;;;;;;;;;;;1.10;99.90;;;;;;5083956;28;20312;-67
2024/01/27 06:55:06;;;;;;;;;;;1.10;99.90;;;;;;5080868;28;19920;-67
2024/01/27 06:57:32;;;;;;;;;;;1.10;99.90;;;;;;5081362;28;19922;-67
2024/01/27 06:59:58;;;;;;;;;;;1.10;99.90;;;;;;5071272;28;19927;-67
2024/01/27 07:02:28;;;;;;;;;;;1.10;99.90;;;;;;5064114;28;19924;-68
2024/01/27 07:04:54;;;;;;;;;;;1.00;99.90;;;;;;5079298;28;20288;-68
2024/01/27 07:07:22;;;;;;;;;;;1.10;99.90;;;;;;5062786;28;19924;-67
2024/01/27 07:09:48;;;;;;;;;;;1.00;99.90;;;;;;5073437;28;19917;-67
2024/01/27 07:12:13;;;;;;;;;;;1.00;99.90;;;;;;5071120;28;20399;-67
2024/01/27 07:14:39;;;;;;;;;;;1.00;99.90;;;;;;5075320;28;19917;-67
2024/01/27 07:17:05;;;;;;;;;;;1.10;99.90;;;;;;5075773;28;19924;-67
2024/01/27 07:19:31;;;;;;;;;;;1.10;99.90;;;;;;5072415;28;19969;-67
2024/01/27 07:21:56;;;;;;;;;;;1.10;99.90;;;;;;5079350;28;20300;-67
2024/01/27 07:24:22;;;;;;;;;;;1.20;99.90;;;;;;5076831;28;20372;-67
2024/01/27 07:26:47;;;;;;;;;;;1.10;99.90;;;;;;5079182;28;19985;-67
2024/01/27 07:29:13;;;;;;;;;;;1.10;99.90;;;;;;5071331;28;20309;-66
2024/01/27 07:31:38;;;;;;;;;;;1.10;99.90;;;;;;5080089;28;21401;-67
2024/01/27 07:34:06;;;;;;;;;;;1.10;99.90;;;;;;5063030;28;20548;-67
2024/01/27 07:36:32;;;;;;;;;;;1.10;99.90;;;;;;5081306;28;19931;-67
2024/01/27 07:38:58;;;;;;;;;;;1.20;99.90;;;;;;5070192;28;20377;-67
2024/01/27 07:41:23;;;;;;;;;;;1.20;99.90;;;;;;5076439;28;19930;-67
2024/01/27 07:43:49;;;;;;;;;;;1.20;99.90;;;;;;5078075;28;19923;-67
2024/01/27 07:46:15;;;;;;;;;;;1.20;99.90;;;;;;5078170;28;20012;-68
2024/01/27 07:48:41;;;;;;;;;;;1.30;99.90;;;;;;5071976;28;19922;-67
2024/01/27 07:51:06;;;;;;;;;;;1.20;99.90;;;;;;5080611;28;20002;-67
2024/01/27 07:53:33;;;;;;;;;;;1.30;99.90;;;;;;5077560;28;19920;-67
2024/01/27 07:55:58;;;;;;;;;;;1.30;99.90;;;;;;5079476;28;20316;-67
2024/01/27 07:58:24;;;;;;;;;;;1.30;99.90;;;;;;5072347;28;20026;-67
2024/01/27 08:00:49;;;;;;;;;;;1.30;99.90;;;;;;5091366;28;19916;-67
2024/01/27 08:03:15;;;;;;;;;;;1.40;99.90;;;;;;5046077;28;20031;-67
2024/01/27 08:05:40;;;;;;;;;;;1.40;99.90;;;;;;5078428;28;19920;-67
2024/01/27 08:08:06;;;;;;;;;;;1.50;99.90;;;;;;5085924;28;19916;-67
2024/01/27 08:10:32;;;;;;;;;;;1.60;99.90;;;;;;5073491;28;19916;-67
2024/01/27 08:12:57;;;;;;;;;;;1.60;99.90;;;;;;5079422;28;19920;-67
2024/01/27 08:15:23;;;;;;;;;;;1.70;99.90;;;;;;5080492;28;20300;-67
2024/01/27 08:17:48;;;;;;;;;;;1.70;99.90;;;;;;5075505;28;19973;-68
2024/01/27 08:20:14;;;;;;;;;;;1.80;99.90;;;;;;5075944;28;19920;-66
2024/01/27 08:22:39;;;;;;;;;;;1.80;99.90;;;;;;5081822;28;19959;-68
2024/01/27 08:25:05;;;;;;;;;;;1.80;99.90;;;;;;5075940;28;19920;-67
2024/01/27 08:27:31;;;;;;;;;;;1.90;99.90;;;;;;5103708;28;20297;-67
2024/01/27 08:29:57;;;;;;;;;;;2.10;99.90;;;;;;5077245;28;19916;-67
2024/01/27 08:32:22;;;;;;;;;;;2.30;99.90;;;;;;5069978;28;19987;-67
2024/01/27 08:34:48;;;;;;;;;;;2.30;99.90;;;;;;5073443;28;19916;-67
2024/01/27 08:37:15;;;;;;;;;;;2.30;99.90;;;;;;5082576;28;19916;-67
2024/01/27 08:39:41;;;;;;;;;;;2.20;99.90;;;;;;5070980;28;19951;-66
2024/01/27 08:42:06;;;;;;;;;;;2.20;99.90;;;;;;5079527;28;19964;-67
2024/01/27 08:44:32;;;;;;;;;;;2.20;99.90;;;;;;5083949;28;20012;-66
2024/01/27 08:46:57;;;;;;;;;;;2.20;99.90;;;;;;5076997;28;20385;-68
2024/01/27 08:49:23;;;;;;;;;;;2.20;99.90;;;;;;5082030;28;19915;-67
2024/01/27 08:51:49;;;;;;;;;;;2.30;99.90;;;;;;5078245;28;19916;-67
2024/01/27 08:54:14;;;;;;;;;;;2.40;99.90;;;;;;5083813;28;19920;-67
2024/01/27 08:56:40;;;;;;;;;;;2.60;99.90;;;;;;5080424;28;19928;-66
2024/01/27 08:59:06;;;;;;;;;;;2.90;99.90;;;;;;5080866;28;19920;-67
2024/01/27 09:01:32;;;;;;;;;;;3.20;99.90;;;;;;5078581;28;19927;-67
2024/01/27 09:03:57;;;;;;;;;;;3.30;99.90;;;;;;5088218;28;19923;-67
2024/01/27 09:06:23;;;;;;;;;;;3.30;99.90;;;;;;5078039;28;19916;-67
2024/01/27 09:08:48;;;;;;;;;;;3.70;99.90;;;;;;5083647;28;19924;-67
2024/01/27 09:11:14;;;;;;;;;;;4.20;99.90;;;;;;5079756;28;19967;-66
2024/01/27 09:13:40;;;;;;;;;;;4.70;99.90;;;;;;5079462;28;19996;-67
2024/01/27 09:16:05;;;;;;;;;;;5.20;99.90;;;;;;5079604;28;20116;-67
2024/01/27 09:18:31;;;;;;;;;;;5.70;99.90;;;;;;5081692;28;20194;-67
2024/01/27 09:20:56;;;;;;;;;;;5.80;99.90;;;;;;5078417;28;20331;-67
2024/01/27 09:23:22;;;;;;;;;;;6.10;99.90;;;;;;5071706;28;20262;-67
2024/01/27 09:25:48;;;;;;;;;;;6.50;99.90;;;;;;5080231;28;19963;-67
2024/01/27 09:28:14;;;;;;;;;;;6.90;99.90;;;;;;5073376;28;20003;-67
2024/01/27 09:30:40;;;;;;;;;;;7.20;99.90;;;;;;5078172;28;20009;-67
2024/01/27 09:33:06;;;;;;;;;;;7.40;99.90;;;;;;5071855;28;19928;-67
2024/01/27 09:35:31;;;;;;;;;;;7.40;99.90;;;;;;5084025;28;20309;-67
2024/01/27 09:37:57;;;;;;;;;;;7.30;99.90;;;;;;5083981;28;20277;-66
2024/01/27 09:40:22;;;;;;;;;;;7.60;99.90;;;;;;5081978;28;19973;-67
2024/01/27 09:42:51;;;;;;;;;;;7.90;99.90;;;;;;5086032;28;20366;-67
2024/01/27 09:45:17;;;;;;;;;;;7.90;99.90;;;;;;5078761;28;19970;-67
2024/01/27 09:47:43;;;;;;;;;;;7.30;99.90;;;;;;5076656;28;19959;-66
2024/01/27 09:50:10;;;;;;;;;;;7.10;99.90;;;;;;5079361;28;20334;-67
2024/01/27 09:52:36;;;;;;;;;;;7.00;99.90;;;;;;5083708;28;20424;-66
2024/01/27 09:55:02;;;;;;;;;;;6.80;99.90;;;;;;5058134;28;19927;-66
2024/01/27 09:57:28;;;;;;;;;;;6.60;99.90;;;;;;5082315;28;19915;-66
2024/01/27 09:59:55;;;;;;;;;;;6.50;99.90;;;;;;5063694;28;20373;-67
2024/01/27 10:02:21;;;;;;;;;;;6.20;99.90;;;;;;5071675;28;20373;-66
2024/01/27 10:04:48;;;;;;;;;;;5.90;99.90;;;;;;5077878;28;19916;-67
2024/01/27 10:07:14;;;;;;;;;;;6.00;99.90;;;;;;5075605;28;19916;-66
2024/01/27 10:09:41;;;;;;;;;;;5.90;99.90;;;;;;5063500;28;20010;-67
2024/01/27 10:12:07;;;;;;;;;;;6.20;99.90;;;;;;5071337;28;19959;-67
2024/01/27 10:14:44;;;;;;;;;;;6.20;99.90;;;;;;5068651;28;19916;-67
2024/01/27 10:17:19;;;;;;;;;;;6.10;99.90;;;;;;5066107;28;20305;-66
2024/01/27 10:19:45;;;;;;;;;;;6.10;99.90;;;;;;5066492;28;19916;-66
2024/01/27 10:22:11;;;;;;;;;;;6.30;99.90;;;;;;5049769;28;20385;-66
2024/01/27 10:24:36;;;;;;;;;;;6.50;99.90;;;;;;5069934;28;19942;-66
2024/01/27 10:27:03;;;;;;;;;;;6.40;99.90;;;;;;5068860;28;20297;-66
2024/01/27 10:29:29;;;;;;;;;;;6.20;99.90;;;;;;5070410;28;19972;-67
2024/01/27 10:31:54;;;;;;;;;;;6.00;99.90;;;;;;5071698;28;20366;-66
2024/01/27 10:34:20;;;;;;;;;;;6.10;99.90;;;;;;5070302;28;19920;-66
2024/01/27 10:36:46;;;;;;;;;;;6.20;99.90;;;;;;5070043;28;20280;-67
2024/01/27 10:39:19;;;;;;;;;;;6.30;99.90;;;;;;5070877;28;19920;-67
2024/01/27 10:41:45;;;;;;;;;;;6.30;99.90;;;;;;5070334;28;19920;-66
2024/01/27 10:44:13;;;;;;;;;;;6.10;99.90;;;;;;5070981;28;19921;-66
2024/01/27 10:46:39;;;;;;;;;;;6.10;99.90;;;;;;5067051;28;19978;-66
2024/01/27 10:49:06;;;;;;;;;;;6.00;99.90;;;;;;5069143;28;20392;-66
2024/01/27 10:51:33;;;;;;;;;;;6.00;99.90;;;;;;5069875;28;19929;-66
2024/01/27 10:54:01;;;;;;;;;;;6.00;99.90;;;;;;5069892;28;20289;-67
2024/01/27 10:56:27;;;;;;;;;;;5.90;99.90;;;;;;5065497;28;19916;-67
2024/01/27 10:58:53;;;;;;;;;;;6.10;99.90;;;;;;5069216;28;19916;-66
2024/01/27 11:01:22;;;;;;;;;;;6.10;99.90;;;;;;5071302;28;20302;-66
2024/01/27 11:03:48;;;;;;;;;;;6.30;99.90;;;;;;5081510;28;19931;-67
2024/01/27 11:06:14;;;;;;;;;;;6.30;99.90;;;;;;5075568;28;19924;-67
2024/01/27 11:08:40;;;;;;;;;;;6.50;99.90;;;;;;5066852;28;19917;-66
2024/01/27 11:11:06;;;;;;;;;;;6.70;99.90;;;;;;5074248;28;19970;-67
2024/01/27 11:13:32;;;;;;;;;;;6.70;99.90;;;;;;5080617;28;19931;-67
2024/01/27 11:16:00;;;;;;;;;;;6.80;99.90;;;;;;5074407;28;19916;-67
2024/01/27 11:18:26;;;;;;;;;;;6.80;99.90;;;;;;5065908;28;19924;-66
2024/01/27 11:20:53;;;;;;;;;;;6.70;99.90;;;;;;5072486;28;20481;-67
2024/01/27 11:23:19;;;;;;;;;;;6.70;99.90;;;;;;5066710;28;19964;-67
2024/01/27 11:25:45;;;;;;;;;;;6.80;99.90;;;;;;5070451;28;19966;-66
2024/01/27 11:28:15;;;;;;;;;;;6.90;99.90;;;;;;5068996;28;19917;-67
2024/01/27 11:30:44;;;;;;;;;;;6.90;99.90;;;;;;5068545;28;19916;-66
2024/01/27 11:33:10;;;;;;;;;;;6.80;99.90;;;;;;5073326;28;20028;-67
2024/01/27 11:35:36;;;;;;;;;;;6.80;99.90;;;;;;5080396;28;20027;-67
2024/01/27 11:38:01;;;;;;;;;;;6.80;99.90;;;;;;5054834;28;19943;-67
2024/01/27 11:40:28;;;;;;;;;;;6.80;99.90;;;;;;5074233;28;19916;-66
2024/01/27 11:42:57;;;;;;;;;;;6.80;99.90;;;;;;5081576;28;19916;-67
2024/01/27 11:45:23;;;;;;;;;;;6.80;99.90;;;;;;5076006;28;20564;-67
2024/01/27 11:47:49;;;;;;;;;;;6.80;99.90;;;;;;5081321;28;19962;-68
2024/01/27 11:50:16;;;;;;;;;;;6.80;99.90;;;;;;5080549;28;19920;-66
2024/01/27 11:52:42;;;;;;;;;;;6.80;99.90;;;;;;5081830;28;20015;-67
2024/01/27 11:55:08;;;;;;;;;;;6.80;99.90;;;;;;5068206;28;19950;-67
2024/01/27 11:57:34;;;;;;;;;;;6.90;99.90;;;;;;5073834;28;19922;-66
2024/01/27 11:59:59;;;;;;;;;;;6.90;99.90;;;;;;5051578;28;19924;-67
2024/01/27 12:02:25;;;;;;;;;;;6.90;99.90;;;;;;5067177;28;19917;-66
2024/01/27 12:04:51;;;;;;;;;;;6.90;99.90;;;;;;5070154;28;19943;-66
2024/01/27 12:07:20;;;;;;;;;;;7.00;99.90;;;;;;5067842;28;19943;-66
2024/01/27 12:09:45;;;;;;;;;;;7.10;99.90;;;;;;5070558;28;19920;-66
2024/01/27 12:12:12;;;;;;;;;;;7.10;99.90;;;;;;5073932;28;20011;-66
2024/01/27 12:14:39;;;;;;;;;;;7.10;99.90;;;;;;5056010;28;19959;-66
2024/01/27 12:17:04;;;;;;;;;;;7.20;99.90;;;;;;5073316;28;20264;-66
2024/01/27 12:19:30;;;;;;;;;;;7.20;99.90;;;;;;5073592;28;19916;-66
2024/01/27 12:21:57;;;;;;;;;;;7.30;99.90;;;;;;5072250;28;20480;-66
2024/01/27 12:24:23;;;;;;;;;;;7.40;99.90;;;;;;5071760;28;19931;-67
2024/01/27 12:26:49;;;;;;;;;;;7.50;99.90;;;;;;5073052;28;19967;-67
2024/01/27 12:29:15;;;;;;;;;;;7.60;99.90;;;;;;5053721;28;20009;-67
2024/01/27 12:31:41;;;;;;;;;;;7.70;99.90;;;;;;5073548;28;19916;-66
2024/01/27 12:34:07;;;;;;;;;;;7.90;99.90;;;;;;5073063;28;19928;-67
2024/01/27 12:36:32;;;;;;;;;;;7.90;99.90;;;;;;5054719;28;19916;-67
2024/01/27 12:38:58;;;;;;;;;;;8.10;99.90;;;;;;5073492;28;19923;-67
2024/01/27 12:41:25;;;;;;;;;;;8.20;99.90;;;;;;5071872;28;20019;-66
2024/01/27 12:43:50;;;;;;;;;;;8.30;99.90;;;;;;5071403;28;20289;-67
2024/01/27 12:46:16;;;;;;;;;;;8.40;99.90;;;;;;5071197;28;19926;-66
2024/01/27 12:48:42;;;;;;;;;;;8.40;99.90;;;;;;5071741;28;19917;-67
2024/01/27 12:51:09;;;;;;;;;;;8.40;99.90;;;;;;5073082;28;19963;-66
2024/01/27 12:53:34;;;;;;;;;;;8.50;99.90;;;;;;5071003;28;19921;-67
2024/01/27 12:56:00;;;;;;;;;;;8.50;99.90;;;;;;5072299;28;20011;-67
2024/01/27 12:58:26;;;;;;;;;;;8.60;99.90;;;;;;5071491;28;19924;-66
2024/01/27 13:00:51;;;;;;;;;;;8.60;99.90;;;;;;5072931;28;19924;-66
2024/01/27 13:03:17;;;;;;;;;;;8.50;99.90;;;;;;5071723;28;19916;-66
2024/01/27 13:05:43;;;;;;;;;;;8.60;99.90;;;;;;5072053;28;19968;-66
2024/01/27 13:08:09;;;;;;;;;;;8.60;99.90;;;;;;5072269;28;20441;-67
2024/01/27 13:10:35;;;;;;;;;;;8.70;99.90;;;;;;5072379;28;19924;-67
2024/01/27 13:13:01;;;;;;;;;;;8.70;99.90;;;;;;5070862;28;19993;-66
2024/01/27 13:15:27;;;;;;;;;;;8.70;99.90;;;;;;5070665;28;19917;-67
2024/01/27 13:17:52;;;;;;;;;;;8.70;99.90;;;;;;5069978;28;19916;-66
2024/01/27 13:20:18;;;;;;;;;;;8.80;99.90;;;;;;5064918;28;19939;-66
2024/01/27 13:22:44;;;;;;;;;;;8.80;99.90;;;;;;5070486;28;19965;-67
2024/01/27 13:25:10;;;;;;;;;;;8.90;99.90;;;;;;5072792;28;20320;-66
2024/01/27 13:27:36;;;;;;;;;;;8.80;99.90;;;;;;5072429;28;19917;-66
2024/01/27 13:30:02;;;;;;;;;;;8.80;99.90;;;;;;5073486;28;19926;-67
2024/01/27 13:32:27;;;;;;;;;;;8.70;99.90;;;;;;5072045;28;19925;-66
2024/01/27 13:34:53;;;;;;;;;;;8.80;99.90;;;;;;5071114;28;19923;-66
2024/01/27 13:37:18;;;;;;;;;;;8.90;99.90;;;;;;5072309;28;19923;-66
2024/01/27 13:39:45;;;;;;;;;;;8.90;99.90;;;;;;5071149;28;19969;-66
2024/01/27 13:42:11;;;;;;;;;;;8.80;99.90;;;;;;5073945;28;19916;-66
2024/01/27 13:44:36;;;;;;;;;;;8.80;99.90;;;;;;5072243;28;19931;-66
2024/01/27 13:47:04;;;;;;;;;;;8.90;99.90;;;;;;5072327;28;19938;-67
2024/01/27 13:49:30;;;;;;;;;;;8.90;99.90;;;;;;5070803;28;19917;-66
2024/01/27 13:51:56;;;;;;;;;;;8.90;99.90;;;;;;5070669;28;19963;-67
2024/01/27 13:54:22;;;;;;;;;;;8.90;99.90;;;;;;5071974;28;19964;-66
2024/01/27 13:56:47;;;;;;;;;;;8.90;99.90;;;;;;5072351;28;19966;-66
2024/01/27 13:59:13;;;;;;;;;;;8.80;99.90;;;;;;5070643;28;19974;-66
2024/01/27 14:01:38;;;;;;;;;;;8.80;99.90;;;;;;5070357;28;20292;-67
2024/01/27 14:04:05;;;;;;;;;;;8.80;99.90;;;;;;5071631;28;19948;-66
2024/01/27 14:06:30;;;;;;;;;;;8.80;99.90;;;;;;5070569;28;19923;-66
2024/01/27 14:08:56;;;;;;;;;;;8.80;99.90;;;;;;5071793;28;19924;-67
2024/01/27 14:11:22;;;;;;;;;;;8.70;99.90;;;;;;5053978;28;19917;-66
2024/01/27 14:13:48;;;;;;;;;;;8.70;99.90;;;;;;5071446;28;20556;-67
2024/01/27 14:16:13;;;;;;;;;;;8.70;99.90;;;;;;5071724;28;19974;-66
2024/01/27 14:18:39;;;;;;;;;;;8.70;99.90;;;;;;5070171;28;20003;-67
2024/01/27 14:21:04;;;;;;;;;;;8.70;99.90;;;;;;5065566;28;19917;-66
2024/01/27 14:23:31;;;;;;;;;;;8.60;99.90;;;;;;5069763;28;20226;-66